createdAt,value
2018-05-12T00:00:59.730Z,1018.89
2018-05-12T00:02:08.565Z,1018.86
2018-05-12T00:03:17.405Z,1018.88
2018-05-12T00:04:26.246Z,1018.9
2018-05-12T00:05:35.075Z,1018.88
2018-05-12T00:06:44.246Z,1018.88
2018-05-12T00:07:53.080Z,1018.85
2018-05-12T00:09:01.916Z,1018.8
2018-05-12T00:10:10.750Z,1018.8
2018-05-12T00:11:19.689Z,1018.78
2018-05-12T00:12:28.524Z,1018.81
2018-05-12T00:13:37.728Z,1018.81
2018-05-12T00:14:46.555Z,1018.8
2018-05-12T00:15:56.057Z,1018.76
2018-05-12T00:17:05.723Z,1018.73
2018-05-12T00:18:14.765Z,1018.72
2018-05-12T00:19:23.600Z,1018.74
2018-05-12T00:20:32.439Z,1018.73
2018-05-12T00:21:41.546Z,1018.74
2018-05-12T00:22:50.484Z,1018.69
2018-05-12T00:23:59.592Z,1018.68
2018-05-12T00:25:08.429Z,1018.69
2018-05-12T00:26:17.265Z,1018.68
2018-05-12T00:27:26.102Z,1018.66
2018-05-12T00:28:34.939Z,1018.62
2018-05-12T00:29:44.051Z,1018.59
2018-05-12T00:30:52.891Z,1018.53
2018-05-12T00:32:01.721Z,1018.59
2018-05-12T00:33:10.556Z,1018.58
2018-05-12T00:34:19.545Z,1018.56
2018-05-12T00:35:28.384Z,1018.57
2018-05-12T00:36:37.214Z,1018.56
2018-05-12T00:37:46.049Z,1018.6
2018-05-12T00:38:54.883Z,1018.61
2018-05-12T00:40:04.069Z,1018.63
2018-05-12T00:41:12.904Z,1018.67
2018-05-12T00:42:21.742Z,1018.67
2018-05-12T00:43:30.577Z,1018.65
2018-05-12T00:44:39.958Z,1018.61
2018-05-12T00:45:49.220Z,1018.59
2018-05-12T00:46:58.055Z,1018.61
2018-05-12T00:48:06.900Z,1018.59
2018-05-12T00:49:15.726Z,1018.59
2018-05-12T00:50:24.561Z,1018.59
2018-05-12T00:51:33.672Z,1018.61
2018-05-12T00:52:42.507Z,1018.63
2018-05-12T00:53:51.345Z,1018.62
2018-05-12T00:55:00.454Z,1018.61
2018-05-12T00:56:09.572Z,1018.54
2018-05-12T00:57:18.552Z,1018.58
2018-05-12T00:58:27.386Z,1018.49
2018-05-12T00:59:36.504Z,1018.51
2018-05-12T01:00:45.618Z,1018.48
2018-05-12T01:01:54.451Z,1018.51
2018-05-12T01:03:03.438Z,1018.5
2018-05-12T01:04:12.551Z,1018.5
2018-05-12T01:05:21.386Z,1018.46
2018-05-12T01:06:30.228Z,1018.49
2018-05-12T01:07:39.093Z,1018.46
2018-05-12T01:08:48.242Z,1018.45
2018-05-12T01:09:57.078Z,1018.47
2018-05-12T01:11:06.191Z,1018.49
2018-05-12T01:12:15.029Z,1018.47
2018-05-12T01:13:23.865Z,1018.49
2018-05-12T01:14:33.153Z,1018.48
2018-05-12T01:15:42.274Z,1018.48
2018-05-12T01:16:51.381Z,1018.44
2018-05-12T01:18:00.494Z,1018.43
2018-05-12T01:19:09.328Z,1018.45
2018-05-12T01:20:18.543Z,1018.37
2018-05-12T01:21:27.374Z,1018.44
2018-05-12T01:22:36.211Z,1018.45
2018-05-12T01:23:45.319Z,1018.45
2018-05-12T01:24:54.157Z,1018.46
2018-05-12T01:26:03.045Z,1018.46
2018-05-12T01:27:12.160Z,1018.43
2018-05-12T01:28:21.276Z,1018.42
2018-05-12T01:29:30.119Z,1018.44
2018-05-12T01:30:39.777Z,1018.43
2018-05-12T01:31:48.888Z,1018.41
2018-05-12T01:32:57.727Z,1018.4
2018-05-12T01:34:06.568Z,1018.44
2018-05-12T01:35:15.680Z,1018.4
2018-05-12T01:36:24.517Z,1018.4
2018-05-12T01:37:33.638Z,1018.38
2018-05-12T01:38:42.481Z,1018.4
2018-05-12T01:39:51.860Z,1018.4
2018-05-12T01:41:00.697Z,1018.38
2018-05-12T01:42:09.804Z,1018.4
2018-05-12T01:43:18.917Z,1018.36
2018-05-12T01:44:28.036Z,1018.36
2018-05-12T01:45:36.862Z,1018.36
2018-05-12T01:46:45.695Z,1018.34
2018-05-12T01:47:54.538Z,1018.36
2018-05-12T01:49:03.526Z,1018.35
2018-05-12T01:50:12.452Z,1018.34
2018-05-12T01:51:21.194Z,1018.38
2018-05-12T01:52:30.030Z,1018.39
2018-05-12T01:53:38.865Z,1018.43
2018-05-12T01:54:47.702Z,1018.42
2018-05-12T01:55:56.818Z,1018.4
2018-05-12T01:57:05.925Z,1018.4
2018-05-12T01:58:15.039Z,1018.36
2018-05-12T01:59:24.151Z,1018.37
2018-05-12T02:00:33.517Z,1018.38
2018-05-12T02:01:42.630Z,1018.38
2018-05-12T02:02:51.466Z,1018.38
2018-05-12T02:04:00.301Z,1018.37
2018-05-12T02:05:09.411Z,1018.39
2018-05-12T02:06:18.445Z,1018.33
2018-05-12T02:07:27.553Z,1018.34
2018-05-12T02:08:36.393Z,1018.38
2018-05-12T02:09:45.225Z,1018.38
2018-05-12T02:10:54.060Z,1018.4
2018-05-12T02:12:02.998Z,1018.42
2018-05-12T02:13:11.836Z,1018.41
2018-05-12T02:14:20.949Z,1018.44
2018-05-12T02:15:29.779Z,1018.42
2018-05-12T02:16:38.891Z,1018.4
2018-05-12T02:17:47.729Z,1018.34
2018-05-12T02:18:56.842Z,1018.29
2018-05-12T02:20:05.681Z,1018.32
2018-05-12T02:21:14.517Z,1018.28
2018-05-12T02:22:23.353Z,1018.27
2018-05-12T02:23:32.239Z,1018.3
2018-05-12T02:24:41.074Z,1018.29
2018-05-12T02:25:49.908Z,1018.3
2018-05-12T02:26:58.748Z,1018.32
2018-05-12T02:28:07.583Z,1018.31
2018-05-12T02:29:16.443Z,1018.3
2018-05-12T02:30:25.631Z,1018.3
2018-05-12T02:31:35.194Z,1018.34
2018-05-12T02:32:44.039Z,1018.35
2018-05-12T02:33:53.149Z,1018.33
2018-05-12T02:35:02.260Z,1018.34
2018-05-12T02:36:11.397Z,1018.37
2018-05-12T02:37:20.513Z,1018.32
2018-05-12T02:38:29.906Z,1018.32
2018-05-12T02:39:39.298Z,1018.29
2018-05-12T02:40:48.459Z,1018.31
2018-05-12T02:41:57.573Z,1018.33
2018-05-12T02:43:06.967Z,1018.31
2018-05-12T02:44:16.108Z,1018.33
2018-05-12T02:45:24.937Z,1018.34
2018-05-12T02:46:33.827Z,1018.34
2018-05-12T02:47:42.663Z,1018.33
2018-05-12T02:48:51.508Z,1018.31
2018-05-12T02:50:00.648Z,1018.35
2018-05-12T02:51:10.034Z,1018.29
2018-05-12T02:52:19.304Z,1018.34
2018-05-12T02:53:28.726Z,1018.34
2018-05-12T02:54:37.819Z,1018.31
2018-05-12T02:55:46.933Z,1018.3
2018-05-12T02:56:55.767Z,1018.28
2018-05-12T02:58:05.228Z,1018.3
2018-05-12T02:59:14.346Z,1018.28
2018-05-12T03:00:23.464Z,1018.27
2018-05-12T03:01:32.299Z,1018.28
2018-05-12T03:02:41.421Z,1018.25
2018-05-12T03:03:50.357Z,1018.31
2018-05-12T03:04:59.470Z,1018.28
2018-05-12T03:06:08.586Z,1018.3
2018-05-12T03:07:17.699Z,1018.25
2018-05-12T03:08:27.377Z,1018.24
2018-05-12T03:09:37.148Z,1018.26
2018-05-12T03:10:46.268Z,1018.23
2018-05-12T03:11:55.660Z,1018.22
2018-05-12T03:13:04.497Z,1018.23
2018-05-12T03:14:13.335Z,1018.21
2018-05-12T03:15:22.562Z,1018.22
2018-05-12T03:16:31.390Z,1018.21
2018-05-12T03:17:40.231Z,1018.22
2018-05-12T03:18:49.345Z,1018.17
2018-05-12T03:19:58.181Z,1018.19
2018-05-12T03:21:07.351Z,1018.21
2018-05-12T03:22:16.459Z,1018.24
2018-05-12T03:23:25.298Z,1018.2
2018-05-12T03:24:34.412Z,1018.22
2018-05-12T03:25:43.250Z,1018.23
2018-05-12T03:26:52.361Z,1018.21
2018-05-12T03:28:01.197Z,1018.17
2018-05-12T03:29:10.309Z,1018.12
2018-05-12T03:30:19.147Z,1018.11
2018-05-12T03:31:28.261Z,1018.13
2018-05-12T03:32:37.252Z,1018.11
2018-05-12T03:33:46.086Z,1018.13
2018-05-12T03:34:54.920Z,1018.1
2018-05-12T03:36:04.031Z,1018.09
2018-05-12T03:37:12.869Z,1018.08
2018-05-12T03:38:21.704Z,1018.1
2018-05-12T03:39:30.817Z,1018.09
2018-05-12T03:40:39.649Z,1018.11
2018-05-12T03:41:48.485Z,1018.13
2018-05-12T03:42:57.319Z,1018.14
2018-05-12T03:44:06.786Z,1018.19
2018-05-12T03:45:15.621Z,1018.18
2018-05-12T03:46:24.459Z,1018.17
2018-05-12T03:47:33.848Z,1018.18
2018-05-12T03:48:43.236Z,1018.19
2018-05-12T03:49:52.342Z,1018.19
2018-05-12T03:51:01.179Z,1018.18
2018-05-12T03:52:10.300Z,1018.2
2018-05-12T03:53:19.406Z,1018.16
2018-05-12T03:54:28.240Z,1018.19
2018-05-12T03:55:37.127Z,1018.19
2018-05-12T03:56:45.961Z,1018.22
2018-05-12T03:57:54.796Z,1018.24
2018-05-12T03:59:04.181Z,1018.24
2018-05-12T04:00:13.565Z,1018.27
2018-05-12T04:01:22.753Z,1018.28
2018-05-12T04:02:31.587Z,1018.31
2018-05-12T04:03:40.707Z,1018.32
2018-05-12T04:04:49.532Z,1018.32
2018-05-12T04:05:58.916Z,1018.3
2018-05-12T04:07:08.232Z,1018.28
2018-05-12T04:08:17.343Z,1018.24
2018-05-12T04:09:26.179Z,1018.24
2018-05-12T04:10:35.014Z,1018.25
2018-05-12T04:11:43.849Z,1018.21
2018-05-12T04:12:53.060Z,1018.21
2018-05-12T04:14:01.895Z,1018.25
2018-05-12T04:15:10.735Z,1018.28
2018-05-12T04:16:19.568Z,1018.28
2018-05-12T04:17:28.954Z,1018.3
2018-05-12T04:18:38.480Z,1018.28
2018-05-12T04:19:47.315Z,1018.29
2018-05-12T04:20:56.518Z,1018.27
2018-05-12T04:22:05.599Z,1018.24
2018-05-12T04:23:14.433Z,1018.26
2018-05-12T04:24:23.672Z,1018.24
2018-05-12T04:25:32.507Z,1018.27
2018-05-12T04:26:41.349Z,1018.26
2018-05-12T04:27:50.181Z,1018.29
2018-05-12T04:28:59.016Z,1018.26
2018-05-12T04:30:07.850Z,1018.29
2018-05-12T04:31:16.957Z,1018.28
2018-05-12T04:32:25.792Z,1018.28
2018-05-12T04:33:34.634Z,1018.32
2018-05-12T04:34:43.467Z,1018.32
2018-05-12T04:35:52.655Z,1018.33
2018-05-12T04:37:01.491Z,1018.35
2018-05-12T04:38:10.328Z,1018.32
2018-05-12T04:39:19.438Z,1018.31
2018-05-12T04:40:28.552Z,1018.33
2018-05-12T04:41:37.638Z,1018.3
2018-05-12T04:42:47.024Z,1018.33
2018-05-12T04:43:56.138Z,1018.34
2018-05-12T04:45:04.976Z,1018.33
2018-05-12T04:46:14.085Z,1018.3
2018-05-12T04:47:23.020Z,1018.29
2018-05-12T04:48:31.854Z,1018.29
2018-05-12T04:49:40.964Z,1018.23
2018-05-12T04:50:49.801Z,1018.2
2018-05-12T04:51:58.638Z,1018.21
2018-05-12T04:53:07.477Z,1018.24
2018-05-12T04:54:16.339Z,1018.28
2018-05-12T04:55:25.143Z,1018.32
2018-05-12T04:56:33.977Z,1018.33
2018-05-12T04:57:43.092Z,1018.31
2018-05-12T04:58:51.979Z,1018.33
2018-05-12T05:00:01.096Z,1018.29
2018-05-12T05:01:10.207Z,1018.29
2018-05-12T05:02:19.044Z,1018.36
2018-05-12T05:03:27.881Z,1018.3
2018-05-12T05:04:36.721Z,1018.28
2018-05-12T05:05:45.830Z,1018.32
2018-05-12T05:06:54.667Z,1018.35
2018-05-12T05:08:03.503Z,1018.32
2018-05-12T05:09:12.701Z,1018.33
2018-05-12T05:10:21.537Z,1018.3
2018-05-12T05:11:30.646Z,1018.31
2018-05-12T05:12:39.483Z,1018.33
2018-05-12T05:13:48.589Z,1018.33
2018-05-12T05:14:57.423Z,1018.33
2018-05-12T05:16:06.413Z,1018.31
2018-05-12T05:17:15.520Z,1018.34
2018-05-12T05:18:24.357Z,1018.31
2018-05-12T05:19:33.752Z,1018.32
2018-05-12T05:20:42.588Z,1018.34
2018-05-12T05:21:52.051Z,1018.34
2018-05-12T05:23:00.888Z,1018.35
2018-05-12T05:24:09.726Z,1018.37
2018-05-12T05:25:18.834Z,1018.34
2018-05-12T05:26:27.945Z,1018.34
2018-05-12T05:27:37.033Z,1018.43
2018-05-12T05:28:45.869Z,1018.36
2018-05-12T05:29:54.702Z,1018.35
2018-05-12T05:31:03.537Z,1018.39
2018-05-12T05:32:12.371Z,1018.4
2018-05-12T05:33:21.309Z,1018.36
2018-05-12T05:34:30.419Z,1018.36
2018-05-12T05:35:39.255Z,1018.35
2018-05-12T05:36:48.096Z,1018.38
2018-05-12T05:37:56.927Z,1018.39
2018-05-12T05:39:06.014Z,1018.37
2018-05-12T05:40:14.848Z,1018.34
2018-05-12T05:41:23.685Z,1018.3
2018-05-12T05:42:32.523Z,1018.33
2018-05-12T05:43:41.358Z,1018.35
2018-05-12T05:44:50.295Z,1018.33
2018-05-12T05:45:59.132Z,1018.36
2018-05-12T05:47:07.968Z,1018.33
2018-05-12T05:48:16.807Z,1018.33
2018-05-12T05:49:25.921Z,1018.39
2018-05-12T05:50:35.133Z,1018.36
2018-05-12T05:51:43.970Z,1018.38
2018-05-12T05:52:52.809Z,1018.35
2018-05-12T05:54:01.642Z,1018.36
2018-05-12T05:55:10.531Z,1018.39
2018-05-12T05:56:19.516Z,1018.41
2018-05-12T05:57:28.361Z,1018.39
2018-05-12T05:58:37.261Z,1018.4
2018-05-12T05:59:46.026Z,1018.37
2018-05-12T06:00:54.858Z,1018.39
2018-05-12T06:02:04.256Z,1018.39
2018-05-12T06:03:13.093Z,1018.33
2018-05-12T06:04:21.929Z,1018.37
2018-05-12T06:05:31.043Z,1018.36
2018-05-12T06:06:39.886Z,1018.4
2018-05-12T06:07:49.074Z,1018.39
2018-05-12T06:08:57.913Z,1018.39
2018-05-12T06:10:06.750Z,1018.38
2018-05-12T06:11:15.583Z,1018.37
2018-05-12T06:12:24.418Z,1018.4
2018-05-12T06:13:33.627Z,1018.35
2018-05-12T06:14:42.743Z,1018.34
2018-05-12T06:15:51.579Z,1018.34
2018-05-12T06:17:00.414Z,1018.36
2018-05-12T06:18:09.277Z,1018.38
2018-05-12T06:19:19.186Z,1018.34
2018-05-12T06:20:28.031Z,1018.35
2018-05-12T06:21:37.414Z,1018.36
2018-05-12T06:22:46.251Z,1018.31
2018-05-12T06:23:55.091Z,1018.33
2018-05-12T06:25:04.349Z,1018.32
2018-05-12T06:26:13.188Z,1018.35
2018-05-12T06:27:22.031Z,1018.36
2018-05-12T06:28:31.166Z,1018.38
2018-05-12T06:29:40.003Z,1018.38
2018-05-12T06:30:48.843Z,1018.4
2018-05-12T06:31:57.679Z,1018.36
2018-05-12T06:33:06.512Z,1018.4
2018-05-12T06:34:15.627Z,1018.46
2018-05-12T06:35:24.465Z,1018.42
2018-05-12T06:36:33.402Z,1018.47
2018-05-12T06:37:42.235Z,1018.44
2018-05-12T06:38:51.070Z,1018.42
2018-05-12T06:40:00.456Z,1018.47
2018-05-12T06:41:09.293Z,1018.43
2018-05-12T06:42:18.762Z,1018.42
2018-05-12T06:43:27.601Z,1018.49
2018-05-12T06:44:36.440Z,1018.51
2018-05-12T06:45:45.275Z,1018.47
2018-05-12T06:46:54.111Z,1018.42
2018-05-12T06:48:03.098Z,1018.47
2018-05-12T06:49:11.940Z,1018.44
2018-05-12T06:50:20.776Z,1018.46
2018-05-12T06:51:29.611Z,1018.46
2018-05-12T06:52:38.558Z,1018.5
2018-05-12T06:53:47.997Z,1018.47
2018-05-12T06:54:56.837Z,1018.47
2018-05-12T06:56:05.675Z,1018.47
2018-05-12T06:57:14.794Z,1018.47
2018-05-12T06:58:23.628Z,1018.46
2018-05-12T06:59:32.613Z,1018.49
2018-05-12T07:00:41.453Z,1018.46
2018-05-12T07:01:50.289Z,1018.45
2018-05-12T07:02:59.404Z,1018.44
2018-05-12T07:04:08.519Z,1018.43
2018-05-12T07:05:17.509Z,1018.43
2018-05-12T07:06:26.350Z,1018.47
2018-05-12T07:07:35.185Z,1018.5
2018-05-12T07:08:44.021Z,1018.47
2018-05-12T07:09:52.857Z,1018.43
2018-05-12T07:11:02.047Z,1018.5
2018-05-12T07:12:10.883Z,1018.47
2018-05-12T07:13:20.349Z,1018.44
2018-05-12T07:14:29.187Z,1018.48
2018-05-12T07:15:38.025Z,1018.48
2018-05-12T07:16:47.013Z,1018.46
2018-05-12T07:17:55.856Z,1018.48
2018-05-12T07:19:04.691Z,1018.49
2018-05-12T07:20:13.805Z,1018.49
2018-05-12T07:21:22.655Z,1018.48
2018-05-12T07:22:31.771Z,1018.51
2018-05-12T07:23:40.608Z,1018.49
2018-05-12T07:24:49.729Z,1018.48
2018-05-12T07:25:59.167Z,1018.47
2018-05-12T07:27:08.221Z,1018.5
2018-05-12T07:28:17.410Z,1018.45
2018-05-12T07:29:26.796Z,1018.49
2018-05-12T07:30:35.905Z,1018.49
2018-05-12T07:31:45.022Z,1018.49
2018-05-12T07:32:54.138Z,1018.46
2018-05-12T07:34:03.402Z,1018.46
2018-05-12T07:35:12.240Z,1018.44
2018-05-12T07:36:21.632Z,1018.44
2018-05-12T07:37:30.745Z,1018.41
2018-05-12T07:38:39.583Z,1018.45
2018-05-12T07:39:48.469Z,1018.41
2018-05-12T07:40:57.589Z,1018.45
2018-05-12T07:42:07.251Z,1018.44
2018-05-12T07:43:16.089Z,1018.47
2018-05-12T07:44:24.926Z,1018.5
2018-05-12T07:45:33.975Z,1018.46
2018-05-12T07:46:43.121Z,1018.47
2018-05-12T07:47:52.237Z,1018.44
2018-05-12T07:49:01.346Z,1018.39
2018-05-12T07:50:10.183Z,1018.46
2018-05-12T07:51:19.020Z,1018.44
2018-05-12T07:52:27.855Z,1018.39
2018-05-12T07:53:36.693Z,1018.41
2018-05-12T07:54:45.808Z,1018.37
2018-05-12T07:55:54.649Z,1018.38
2018-05-12T07:57:03.531Z,1018.4
2018-05-12T07:58:12.323Z,1018.41
2018-05-12T07:59:21.162Z,1018.42
2018-05-12T08:00:29.999Z,1018.41
2018-05-12T08:01:38.836Z,1018.4
2018-05-12T08:02:48.096Z,1018.35
2018-05-12T08:03:56.935Z,1018.39
2018-05-12T08:05:06.052Z,1018.38
2018-05-12T08:06:15.165Z,1018.4
2018-05-12T08:07:24.011Z,1018.4
2018-05-12T08:08:32.845Z,1018.36
2018-05-12T08:09:41.684Z,1018.37
2018-05-12T08:10:50.524Z,1018.36
2018-05-12T08:11:59.361Z,1018.35
2018-05-12T08:13:08.198Z,1018.34
2018-05-12T08:14:17.186Z,1018.32
2018-05-12T08:15:26.297Z,1018.33
2018-05-12T08:16:35.135Z,1018.33
2018-05-12T08:17:44.245Z,1018.3
2018-05-12T08:18:53.365Z,1018.31
2018-05-12T08:20:02.204Z,1018.3
2018-05-12T08:21:11.042Z,1018.3
2018-05-12T08:22:19.884Z,1018.34
2018-05-12T08:23:28.724Z,1018.31
2018-05-12T08:24:37.565Z,1018.3
2018-05-12T08:25:47.105Z,1018.29
2018-05-12T08:26:56.050Z,1018.26
2018-05-12T08:28:04.780Z,1018.3
2018-05-12T08:29:13.618Z,1018.31
2018-05-12T08:30:22.458Z,1018.32
2018-05-12T08:31:31.703Z,1018.32
2018-05-12T08:32:40.490Z,1018.26
2018-05-12T08:33:49.329Z,1018.29
2018-05-12T08:34:58.441Z,1018.27
2018-05-12T08:36:07.281Z,1018.28
2018-05-12T08:37:16.223Z,1018.29
2018-05-12T08:38:25.062Z,1018.27
2018-05-12T08:39:33.904Z,1018.31
2018-05-12T08:40:43.036Z,1018.28
2018-05-12T08:41:51.875Z,1018.22
2018-05-12T08:43:01.627Z,1018.21
2018-05-12T08:44:10.746Z,1018.2
2018-05-12T08:45:19.576Z,1018.23
2018-05-12T08:46:28.413Z,1018.21
2018-05-12T08:47:37.524Z,1018.16
2018-05-12T08:48:46.463Z,1018.23
2018-05-12T08:49:55.301Z,1018.2
2018-05-12T08:51:04.691Z,1018.2
2018-05-12T08:52:13.532Z,1018.21
2018-05-12T08:53:22.369Z,1018.25
2018-05-12T08:54:31.215Z,1018.18
2018-05-12T08:55:40.053Z,1018.2
2018-05-12T08:56:48.900Z,1018.21
2018-05-12T08:57:58.007Z,1018.22
2018-05-12T08:59:07.125Z,1018.24
2018-05-12T09:00:16.056Z,1018.23
2018-05-12T09:01:24.894Z,1018.27
2018-05-12T09:02:33.733Z,1018.24
2018-05-12T09:03:42.571Z,1018.23
2018-05-12T09:04:51.408Z,1018.19
2018-05-12T09:06:00.246Z,1018.16
2018-05-12T09:07:09.445Z,1018.21
2018-05-12T09:08:18.894Z,1018.22
2018-05-12T09:09:27.782Z,1018.22
2018-05-12T09:10:36.620Z,1018.16
2018-05-12T09:11:45.906Z,1018.15
2018-05-12T09:12:54.748Z,1018.22
2018-05-12T09:14:03.585Z,1018.18
2018-05-12T09:15:12.698Z,1018.19
2018-05-12T09:16:21.541Z,1018.18
2018-05-12T09:17:30.430Z,1018.2
2018-05-12T09:18:39.545Z,1018.2
2018-05-12T09:19:48.384Z,1018.23
2018-05-12T09:20:57.223Z,1018.15
2018-05-12T09:22:06.338Z,1018.21
2018-05-12T09:23:15.505Z,1018.18
2018-05-12T09:24:24.907Z,1018.22
2018-05-12T09:25:33.786Z,1018.18
2018-05-12T09:26:42.970Z,1018.17
2018-05-12T09:27:52.083Z,1018.17
2018-05-12T09:29:01.350Z,1018.17
2018-05-12T09:30:10.189Z,1018.11
2018-05-12T09:31:19.027Z,1018.14
2018-05-12T09:32:27.867Z,1018.1
2018-05-12T09:33:36.706Z,1018.09
2018-05-12T09:34:45.868Z,1018.12
2018-05-12T09:35:54.993Z,1018.1
2018-05-12T09:37:03.830Z,1018.08
2018-05-12T09:38:12.675Z,1018.12
2018-05-12T09:39:21.516Z,1018.11
2018-05-12T09:40:30.510Z,1018.09
2018-05-12T09:41:39.353Z,1018.09
2018-05-12T09:42:48.471Z,1018.12
2018-05-12T09:43:57.864Z,1018.15
2018-05-12T09:45:06.704Z,1018.14
2018-05-12T09:46:15.593Z,1018.15
2018-05-12T09:47:24.431Z,1018.12
2018-05-12T09:48:33.271Z,1018.11
2018-05-12T09:49:42.110Z,1018.12
2018-05-12T09:50:50.951Z,1018.12
2018-05-12T09:52:00.142Z,1018.11
2018-05-12T09:53:08.978Z,1018.13
2018-05-12T09:54:17.822Z,1018.12
2018-05-12T09:55:26.658Z,1018.12
2018-05-12T09:56:35.773Z,1018.18
2018-05-12T09:57:44.888Z,1018.14
2018-05-12T09:58:53.726Z,1018.11
2018-05-12T10:00:03.118Z,1018.07
2018-05-12T10:01:12.232Z,1018.05
2018-05-12T10:02:21.085Z,1018.07
2018-05-12T10:03:30.002Z,1018.02
2018-05-12T10:04:39.156Z,1018.05
2018-05-12T10:05:47.996Z,1018.04
2018-05-12T10:06:56.837Z,1018.04
2018-05-12T10:08:05.958Z,1018.03
2018-05-12T10:09:15.169Z,1018.03
2018-05-12T10:10:24.289Z,1018
2018-05-12T10:11:33.130Z,1018.05
2018-05-12T10:12:42.051Z,1018.01
2018-05-12T10:13:50.809Z,1018.04
2018-05-12T10:14:59.800Z,1017.95
2018-05-12T10:16:08.640Z,1017.98
2018-05-12T10:17:17.482Z,1018.01
2018-05-12T10:18:26.602Z,1018.02
2018-05-12T10:19:35.442Z,1018.01
2018-05-12T10:20:44.611Z,1018.04
2018-05-12T10:21:53.726Z,1018
2018-05-12T10:23:02.572Z,1018
2018-05-12T10:24:11.719Z,1017.98
2018-05-12T10:25:20.559Z,1017.94
2018-05-12T10:26:29.548Z,1017.92
2018-05-12T10:27:38.392Z,1017.88
2018-05-12T10:28:47.229Z,1017.91
2018-05-12T10:29:56.070Z,1017.93
2018-05-12T10:31:04.912Z,1017.92
2018-05-12T10:32:13.752Z,1017.94
2018-05-12T10:33:22.595Z,1017.93
2018-05-12T10:34:31.435Z,1017.93
2018-05-12T10:35:40.275Z,1017.89
2018-05-12T10:36:49.113Z,1017.88
2018-05-12T10:37:58.052Z,1017.92
2018-05-12T10:39:06.901Z,1017.86
2018-05-12T10:40:15.730Z,1017.85
2018-05-12T10:41:24.573Z,1017.84
2018-05-12T10:42:33.416Z,1017.86
2018-05-12T10:43:42.357Z,1017.84
2018-05-12T10:44:51.303Z,1017.81
2018-05-12T10:46:00.323Z,1017.8
2018-05-12T10:47:09.435Z,1017.85
2018-05-12T10:48:18.275Z,1017.8
2018-05-12T10:49:27.214Z,1017.86
2018-05-12T10:50:36.087Z,1017.83
2018-05-12T10:51:44.897Z,1017.77
2018-05-12T10:52:54.013Z,1017.82
2018-05-12T10:54:02.854Z,1017.76
2018-05-12T10:55:12.126Z,1017.76
2018-05-12T10:56:20.970Z,1017.75
2018-05-12T10:57:29.811Z,1017.75
2018-05-12T10:58:39.019Z,1017.72
2018-05-12T10:59:47.861Z,1017.68
2018-05-12T11:00:56.905Z,1017.72
2018-05-12T11:02:06.028Z,1017.66
2018-05-12T11:03:15.148Z,1017.64
2018-05-12T11:04:23.985Z,1017.65
2018-05-12T11:05:33.108Z,1017.65
2018-05-12T11:06:42.675Z,1017.64
2018-05-12T11:07:51.516Z,1017.63
2018-05-12T11:09:00.359Z,1017.65
2018-05-12T11:10:09.484Z,1017.63
2018-05-12T11:11:18.325Z,1017.65
2018-05-12T11:12:27.316Z,1017.65
2018-05-12T11:13:36.162Z,1017.63
2018-05-12T11:14:45.004Z,1017.62
2018-05-12T11:15:53.983Z,1017.57
2018-05-12T11:17:03.161Z,1017.54
2018-05-12T11:18:12.004Z,1017.54
2018-05-12T11:19:20.845Z,1017.55
2018-05-12T11:20:29.961Z,1017.54
2018-05-12T11:21:38.854Z,1017.52
2018-05-12T11:22:48.033Z,1017.49
2018-05-12T11:23:56.977Z,1017.5
2018-05-12T11:25:05.820Z,1017.54
2018-05-12T11:26:14.661Z,1017.52
2018-05-12T11:27:23.509Z,1017.48
2018-05-12T11:28:32.629Z,1017.47
2018-05-12T11:29:41.930Z,1017.5
2018-05-12T11:30:50.737Z,1017.47
2018-05-12T11:31:59.579Z,1017.46
2018-05-12T11:33:08.419Z,1017.4
2018-05-12T11:34:17.261Z,1017.37
2018-05-12T11:35:26.453Z,1017.35
2018-05-12T11:36:35.297Z,1017.38
2018-05-12T11:37:44.142Z,1017.4
2018-05-12T11:38:53.036Z,1017.36
2018-05-12T11:40:02.102Z,1017.3
2018-05-12T11:41:10.951Z,1017.29
2018-05-12T11:42:19.793Z,1017.34
2018-05-12T11:43:28.885Z,1017.29
2018-05-12T11:44:37.821Z,1017.28
2018-05-12T11:45:46.573Z,1017.29
2018-05-12T11:46:55.517Z,1017.27
2018-05-12T11:48:04.358Z,1017.28
2018-05-12T11:49:13.201Z,1017.31
2018-05-12T11:50:22.045Z,1017.3
2018-05-12T11:51:30.893Z,1017.28
2018-05-12T11:52:39.985Z,1017.25
2018-05-12T11:53:48.827Z,1017.28
2018-05-12T11:54:57.668Z,1017.27
2018-05-12T11:56:07.083Z,1017.25
2018-05-12T11:57:16.219Z,1017.26
2018-05-12T11:58:25.176Z,1017.25
2018-05-12T11:59:34.274Z,1017.26
2018-05-12T12:00:43.668Z,1017.24
2018-05-12T12:01:52.522Z,1017.22
2018-05-12T12:03:01.370Z,1017.17
2018-05-12T12:04:10.738Z,1017.23
2018-05-12T12:05:19.583Z,1017.18
2018-05-12T12:06:28.430Z,1017.13
2018-05-12T12:07:37.271Z,1017.22
2018-05-12T12:08:46.118Z,1017.22
2018-05-12T12:09:55.390Z,1017.17
2018-05-12T12:11:04.239Z,1017.14
2018-05-12T12:12:13.083Z,1017.07
2018-05-12T12:13:21.928Z,1017.14
2018-05-12T12:14:31.053Z,1017.17
2018-05-12T12:15:40.372Z,1017.18
2018-05-12T12:16:49.219Z,1017.1
2018-05-12T12:17:58.066Z,1017.1
2018-05-12T12:19:06.912Z,1017.16
2018-05-12T12:20:16.037Z,1017.07
2018-05-12T12:21:25.312Z,1017.17
2018-05-12T12:22:34.161Z,1017.08
2018-05-12T12:23:43.021Z,1017.08
2018-05-12T12:24:51.860Z,1017.01
2018-05-12T12:26:00.981Z,1017.07
2018-05-12T12:27:10.280Z,1016.98
2018-05-12T12:28:19.129Z,1016.97
2018-05-12T12:29:27.978Z,1016.99
2018-05-12T12:30:36.828Z,1016.86
2018-05-12T12:31:45.954Z,1016.94
2018-05-12T12:32:55.223Z,1016.98
2018-05-12T12:34:04.074Z,1017.01
2018-05-12T12:35:12.924Z,1017
2018-05-12T12:36:21.773Z,1017.02
2018-05-12T12:37:30.904Z,1016.85
2018-05-12T12:38:39.851Z,1016.89
2018-05-12T12:39:48.699Z,1016.96
2018-05-12T12:40:57.828Z,1016.95
2018-05-12T12:42:06.953Z,1016.93
2018-05-12T12:43:15.800Z,1016.92
2018-05-12T12:44:24.649Z,1017
2018-05-12T12:45:33.496Z,1016.99
2018-05-12T12:46:42.350Z,1016.92
2018-05-12T12:47:51.468Z,1016.85
2018-05-12T12:49:00.315Z,1016.85
2018-05-12T12:50:09.589Z,1016.81
2018-05-12T12:51:18.434Z,1016.86
2018-05-12T12:52:28.107Z,1016.8
2018-05-12T12:53:37.230Z,1016.83
2018-05-12T12:54:46.358Z,1016.84
2018-05-12T12:55:55.255Z,1016.8
2018-05-12T12:57:04.109Z,1016.71
2018-05-12T12:58:12.960Z,1016.69
2018-05-12T12:59:21.808Z,1016.69
2018-05-12T13:00:30.933Z,1016.67
2018-05-12T13:01:40.055Z,1016.68
2018-05-12T13:02:48.901Z,1016.75
2018-05-12T13:03:57.749Z,1016.69
2018-05-12T13:05:06.598Z,1016.69
2018-05-12T13:06:15.442Z,1016.7
2018-05-12T13:07:24.441Z,1016.71
2018-05-12T13:08:33.288Z,1016.61
2018-05-12T13:09:42.133Z,1016.66
2018-05-12T13:10:51.045Z,1016.6
2018-05-12T13:11:59.829Z,1016.64
2018-05-12T13:13:08.682Z,1016.64
2018-05-12T13:14:17.531Z,1016.57
2018-05-12T13:15:26.669Z,1016.58
2018-05-12T13:16:35.797Z,1016.55
2018-05-12T13:17:44.646Z,1016.57
2018-05-12T13:18:53.496Z,1016.55
2018-05-12T13:20:02.635Z,1016.52
2018-05-12T13:21:11.488Z,1016.53
2018-05-12T13:22:20.339Z,1016.51
2018-05-12T13:23:29.288Z,1016.52
2018-05-12T13:24:38.154Z,1016.55
2018-05-12T13:25:47.281Z,1016.6
2018-05-12T13:26:56.131Z,1016.61
2018-05-12T13:28:05.069Z,1016.51
2018-05-12T13:29:14.116Z,1016.49
2018-05-12T13:30:23.416Z,1016.47
2018-05-12T13:31:32.267Z,1016.5
2018-05-12T13:32:41.119Z,1016.5
2018-05-12T13:33:49.969Z,1016.47
2018-05-12T13:34:58.824Z,1016.48
2018-05-12T13:36:07.826Z,1016.48
2018-05-12T13:37:16.680Z,1016.49
2018-05-12T13:38:25.534Z,1016.51
2018-05-12T13:39:34.386Z,1016.5
2018-05-12T13:40:43.514Z,1016.54
2018-05-12T13:41:52.417Z,1016.56
2018-05-12T13:43:01.271Z,1016.62
2018-05-12T13:44:10.404Z,1016.58
2018-05-12T13:45:19.256Z,1016.54
2018-05-12T13:46:28.110Z,1016.57
2018-05-12T13:47:36.963Z,1016.56
2018-05-12T13:48:45.817Z,1016.55
2018-05-12T13:49:54.672Z,1016.62
2018-05-12T13:51:03.519Z,1016.6
2018-05-12T13:52:12.371Z,1016.56
2018-05-12T13:53:21.506Z,1016.56
2018-05-12T13:54:30.356Z,1016.53
2018-05-12T13:55:39.823Z,1016.51
2018-05-12T13:56:48.626Z,1016.48
2018-05-12T13:57:58.184Z,1016.41